sensor_id;sensor_type;location;lat;lon;timestamp;temperature;humidity
77582;DHT22;66726;52.388;9.986;2023-02-21T00:00:39;8.80;99.90
77582;DHT22;66726;52.388;9.986;2023-02-21T00:03:24;8.80;99.90
77582;DHT22;66726;52.388;9.986;2023-02-21T00:06:10;8.80;99.90
77582;DHT22;66726;52.388;9.986;2023-02-21T00:08:57;8.70;99.90
77582;DHT22;66726;52.388;9.986;2023-02-21T00:11:42;8.80;99.90
77582;DHT22;66726;52.388;9.986;2023-02-21T00:14:28;8.70;99.90
77582;DHT22;66726;52.388;9.986;2023-02-21T00:17:14;8.70;99.90
77582;DHT22;66726;52.388;9.986;2023-02-21T00:20:00;8.70;99.90
77582;DHT22;66726;52.388;9.986;2023-02-21T00:22:45;8.70;99.90
77582;DHT22;66726;52.388;9.986;2023-02-21T00:25:32;8.70;99.90
77582;DHT22;66726;52.388;9.986;2023-02-21T00:28:18;8.70;99.90
77582;DHT22;66726;52.388;9.986;2023-02-21T00:31:04;8.70;99.90
77582;DHT22;66726;52.388;9.986;2023-02-21T00:33:50;8.70;99.90
77582;DHT22;66726;52.388;9.986;2023-02-21T00:36:36;8.70;99.90
77582;DHT22;66726;52.388;9.986;2023-02-21T00:39:22;8.70;99.90
77582;DHT22;66726;52.388;9.986;2023-02-21T00:42:09;8.70;99.90
77582;DHT22;66726;52.388;9.986;2023-02-21T00:44:54;8.70;99.90
77582;DHT22;66726;52.388;9.986;2023-02-21T00:47:40;8.70;99.90
77582;DHT22;66726;52.388;9.986;2023-02-21T00:50:25;8.70;99.90
77582;DHT22;66726;52.388;9.986;2023-02-21T00:53:11;8.70;99.90
77582;DHT22;66726;52.388;9.986;2023-02-21T00:55:57;8.70;99.90
77582;DHT22;66726;52.388;9.986;2023-02-21T00:58:43;8.80;99.90
77582;DHT22;66726;52.388;9.986;2023-02-21T01:01:29;8.70;99.90
77582;DHT22;66726;52.388;9.986;2023-02-21T01:04:14;8.70;99.90
77582;DHT22;66726;52.388;9.986;2023-02-21T01:07:00;8.70;99.90
77582;DHT22;66726;52.388;9.986;2023-02-21T01:09:45;8.70;99.90
77582;DHT22;66726;52.388;9.986;2023-02-21T01:12:31;8.70;99.90
77582;DHT22;66726;52.388;9.986;2023-02-21T01:15:18;8.70;99.90
77582;DHT22;66726;52.388;9.986;2023-02-21T01:18:04;8.80;99.90
77582;DHT22;66726;52.388;9.986;2023-02-21T01:20:49;8.80;99.90
77582;DHT22;66726;52.388;9.986;2023-02-21T01:23:35;8.80;99.90
77582;DHT22;66726;52.388;9.986;2023-02-21T01:26:21;8.80;99.90
77582;DHT22;66726;52.388;9.986;2023-02-21T01:29:06;8.80;99.90
77582;DHT22;66726;52.388;9.986;2023-02-21T01:31:53;8.80;99.90
77582;DHT22;66726;52.388;9.986;2023-02-21T01:34:39;8.80;99.90
77582;DHT22;66726;52.388;9.986;2023-02-21T01:37:24;8.80;99.90
77582;DHT22;66726;52.388;9.986;2023-02-21T01:40:13;8.80;99.90
77582;DHT22;66726;52.388;9.986;2023-02-21T01:42:59;8.80;99.90
77582;DHT22;66726;52.388;9.986;2023-02-21T01:45:48;8.80;99.90
77582;DHT22;66726;52.388;9.986;2023-02-21T01:48:37;8.90;99.90
77582;DHT22;66726;52.388;9.986;2023-02-21T01:51:24;8.80;99.90
77582;DHT22;66726;52.388;9.986;2023-02-21T01:54:15;8.90;99.90
77582;DHT22;66726;52.388;9.986;2023-02-21T01:57:03;8.90;99.90
77582;DHT22;66726;52.388;9.986;2023-02-21T01:59:51;8.90;99.90
77582;DHT22;66726;52.388;9.986;2023-02-21T02:02:48;8.80;99.90
77582;DHT22;66726;52.388;9.986;2023-02-21T02:05:40;8.90;99.90
77582;DHT22;66726;52.388;9.986;2023-02-21T02:08:29;8.90;99.90
77582;DHT22;66726;52.388;9.986;2023-02-21T02:11:38;8.90;99.90
77582;DHT22;66726;52.388;9.986;2023-02-21T02:15:15;8.90;99.90
77582;DHT22;66726;52.388;9.986;2023-02-21T02:21:41;8.90;99.90
77582;DHT22;66726;52.388;9.986;2023-02-21T02:24:46;8.80;99.90
77582;DHT22;66726;52.388;9.986;2023-02-21T02:31:20;8.80;99.90
77582;DHT22;66726;52.388;9.986;2023-02-21T02:34:35;8.80;99.90
77582;DHT22;66726;52.388;9.986;2023-02-21T02:37:18;8.80;99.90
77582;DHT22;66726;52.388;9.986;2023-02-21T02:39:56;8.80;99.90
77582;DHT22;66726;52.388;9.986;2023-02-21T02:42:38;8.70;99.90
77582;DHT22;66726;52.388;9.986;2023-02-21T02:45:19;8.80;99.90
77582;DHT22;66726;52.388;9.986;2023-02-21T02:47:56;8.70;99.90
77582;DHT22;66726;52.388;9.986;2023-02-21T02:50:31;8.70;99.90
77582;DHT22;66726;52.388;9.986;2023-02-21T02:53:03;8.70;99.90
77582;DHT22;66726;52.388;9.986;2023-02-21T02:55:38;8.70;99.90
77582;DHT22;66726;52.388;9.986;2023-02-21T02:58:11;8.70;99.90
77582;DHT22;66726;52.388;9.986;2023-02-21T03:00:42;8.70;99.90
77582;DHT22;66726;52.388;9.986;2023-02-21T03:03:28;8.70;99.90
77582;DHT22;66726;52.388;9.986;2023-02-21T03:06:18;8.70;99.90
77582;DHT22;66726;52.388;9.986;2023-02-21T03:09:04;8.70;99.90
77582;DHT22;66726;52.388;9.986;2023-02-21T03:11:43;8.70;99.90
77582;DHT22;66726;52.388;9.986;2023-02-21T03:14:26;8.70;99.90
77582;DHT22;66726;52.388;9.986;2023-02-21T03:17:02;8.70;99.90
77582;DHT22;66726;52.388;9.986;2023-02-21T03:19:39;8.70;99.90
77582;DHT22;66726;52.388;9.986;2023-02-21T03:22:14;8.70;99.90
77582;DHT22;66726;52.388;9.986;2023-02-21T03:24:47;8.70;99.90
77582;DHT22;66726;52.388;9.986;2023-02-21T03:27:19;8.80;99.90
77582;DHT22;66726;52.388;9.986;2023-02-21T03:29:49;8.70;99.90
77582;DHT22;66726;52.388;9.986;2023-02-21T03:32:23;8.70;99.90
77582;DHT22;66726;52.388;9.986;2023-02-21T03:34:53;8.80;99.90
77582;DHT22;66726;52.388;9.986;2023-02-21T03:37:30;8.80;99.90
77582;DHT22;66726;52.388;9.986;2023-02-21T03:40:02;8.80;99.90
77582;DHT22;66726;52.388;9.986;2023-02-21T03:42:32;8.80;99.90
77582;DHT22;66726;52.388;9.986;2023-02-21T03:45:00;8.80;99.90
77582;DHT22;66726;52.388;9.986;2023-02-21T03:47:28;8.80;99.90
77582;DHT22;66726;52.388;9.986;2023-02-21T03:49:56;8.80;99.90
77582;DHT22;66726;52.388;9.986;2023-02-21T03:52:25;8.80;99.90
77582;DHT22;66726;52.388;9.986;2023-02-21T03:54:53;8.80;99.90
77582;DHT22;66726;52.388;9.986;2023-02-21T03:57:21;8.80;99.90
77582;DHT22;66726;52.388;9.986;2023-02-21T03:59:49;8.90;99.90
77582;DHT22;66726;52.388;9.986;2023-02-21T04:02:18;8.80;99.90
77582;DHT22;66726;52.388;9.986;2023-02-21T04:04:46;8.90;99.90
77582;DHT22;66726;52.388;9.986;2023-02-21T04:07:16;8.80;99.90
77582;DHT22;66726;52.388;9.986;2023-02-21T04:09:47;8.80;99.90
77582;DHT22;66726;52.388;9.986;2023-02-21T04:12:16;8.80;99.90
77582;DHT22;66726;52.388;9.986;2023-02-21T04:14:44;8.80;99.90
77582;DHT22;66726;52.388;9.986;2023-02-21T04:17:12;8.80;99.90
77582;DHT22;66726;52.388;9.986;2023-02-21T04:19:41;8.80;99.90
77582;DHT22;66726;52.388;9.986;2023-02-21T04:22:09;8.80;99.90
77582;DHT22;66726;52.388;9.986;2023-02-21T04:24:37;8.80;99.90
77582;DHT22;66726;52.388;9.986;2023-02-21T04:27:07;8.80;99.90
77582;DHT22;66726;52.388;9.986;2023-02-21T04:29:35;8.90;99.90
77582;DHT22;66726;52.388;9.986;2023-02-21T04:32:03;8.80;99.90
77582;DHT22;66726;52.388;9.986;2023-02-21T04:34:32;8.80;99.90
77582;DHT22;66726;52.388;9.986;2023-02-21T04:37:00;8.80;99.90
77582;DHT22;66726;52.388;9.986;2023-02-21T04:39:28;8.80;99.90
77582;DHT22;66726;52.388;9.986;2023-02-21T04:41:56;8.90;99.90
77582;DHT22;66726;52.388;9.986;2023-02-21T04:44:25;8.90;99.90
77582;DHT22;66726;52.388;9.986;2023-02-21T04:46:53;8.90;99.90
77582;DHT22;66726;52.388;9.986;2023-02-21T04:49:22;8.90;99.90
77582;DHT22;66726;52.388;9.986;2023-02-21T04:51:53;8.90;99.90
77582;DHT22;66726;52.388;9.986;2023-02-21T04:54:21;8.90;99.90
77582;DHT22;66726;52.388;9.986;2023-02-21T04:56:49;8.90;99.90
77582;DHT22;66726;52.388;9.986;2023-02-21T04:59:17;8.90;99.90
77582;DHT22;66726;52.388;9.986;2023-02-21T05:01:46;8.90;99.90
77582;DHT22;66726;52.388;9.986;2023-02-21T05:04:14;8.90;99.90
77582;DHT22;66726;52.388;9.986;2023-02-21T05:06:42;8.90;99.90
77582;DHT22;66726;52.388;9.986;2023-02-21T05:09:10;8.90;99.90
77582;DHT22;66726;52.388;9.986;2023-02-21T05:11:38;9.00;99.90
77582;DHT22;66726;52.388;9.986;2023-02-21T05:14:07;9.00;99.90
77582;DHT22;66726;52.388;9.986;2023-02-21T05:16:35;9.00;99.90
77582;DHT22;66726;52.388;9.986;2023-02-21T05:19:04;8.90;99.90
77582;DHT22;66726;52.388;9.986;2023-02-21T05:21:34;8.90;99.90
77582;DHT22;66726;52.388;9.986;2023-02-21T05:24:03;8.90;99.90
77582;DHT22;66726;52.388;9.986;2023-02-21T05:26:34;8.90;99.90
77582;DHT22;66726;52.388;9.986;2023-02-21T05:29:04;9.00;99.90
77582;DHT22;66726;52.388;9.986;2023-02-21T05:31:33;8.90;99.90
77582;DHT22;66726;52.388;9.986;2023-02-21T05:34:01;8.90;99.90
77582;DHT22;66726;52.388;9.986;2023-02-21T05:36:30;8.90;99.90
77582;DHT22;66726;52.388;9.986;2023-02-21T05:38:59;9.00;99.90
77582;DHT22;66726;52.388;9.986;2023-02-21T05:41:27;9.00;99.90
77582;DHT22;66726;52.388;9.986;2023-02-21T05:43:55;9.00;99.90
77582;DHT22;66726;52.388;9.986;2023-02-21T05:46:24;9.00;99.90
77582;DHT22;66726;52.388;9.986;2023-02-21T05:48:54;9.00;99.90
77582;DHT22;66726;52.388;9.986;2023-02-21T05:51:24;9.00;99.90
77582;DHT22;66726;52.388;9.986;2023-02-21T05:53:54;9.00;99.90
77582;DHT22;66726;52.388;9.986;2023-02-21T05:56:22;9.00;99.90
77582;DHT22;66726;52.388;9.986;2023-02-21T05:58:50;9.00;99.90
77582;DHT22;66726;52.388;9.986;2023-02-21T06:01:19;9.00;99.90
77582;DHT22;66726;52.388;9.986;2023-02-21T06:03:47;9.00;99.90
77582;DHT22;66726;52.388;9.986;2023-02-21T06:06:15;9.00;99.90
77582;DHT22;66726;52.388;9.986;2023-02-21T06:08:44;9.00;99.90
77582;DHT22;66726;52.388;9.986;2023-02-21T06:11:21;9.00;99.90
77582;DHT22;66726;52.388;9.986;2023-02-21T06:13:51;9.00;99.90
77582;DHT22;66726;52.388;9.986;2023-02-21T06:16:21;9.00;99.90
77582;DHT22;66726;52.388;9.986;2023-02-21T06:18:50;9.00;99.90
77582;DHT22;66726;52.388;9.986;2023-02-21T06:21:19;9.00;99.90
77582;DHT22;66726;52.388;9.986;2023-02-21T06:23:48;9.00;99.90
77582;DHT22;66726;52.388;9.986;2023-02-21T06:26:18;9.00;99.90
77582;DHT22;66726;52.388;9.986;2023-02-21T06:28:47;9.00;99.90
77582;DHT22;66726;52.388;9.986;2023-02-21T06:31:16;9.00;99.90
77582;DHT22;66726;52.388;9.986;2023-02-21T06:33:46;9.00;99.90
77582;DHT22;66726;52.388;9.986;2023-02-21T06:36:17;9.00;99.90
77582;DHT22;66726;52.388;9.986;2023-02-21T06:38:49;9.00;99.90
77582;DHT22;66726;52.388;9.986;2023-02-21T06:41:22;9.00;99.90
77582;DHT22;66726;52.388;9.986;2023-02-21T06:43:52;9.00;99.90
77582;DHT22;66726;52.388;9.986;2023-02-21T06:46:23;9.00;99.90
77582;DHT22;66726;52.388;9.986;2023-02-21T06:48:52;8.90;99.90
77582;DHT22;66726;52.388;9.986;2023-02-21T06:51:21;9.00;99.90
77582;DHT22;66726;52.388;9.986;2023-02-21T06:53:55;9.00;99.90
77582;DHT22;66726;52.388;9.986;2023-02-21T06:56:26;9.00;99.90
77582;DHT22;66726;52.388;9.986;2023-02-21T06:58:55;9.00;99.90
77582;DHT22;66726;52.388;9.986;2023-02-21T07:01:24;9.00;99.90
77582;DHT22;66726;52.388;9.986;2023-02-21T07:03:54;9.00;99.90
77582;DHT22;66726;52.388;9.986;2023-02-21T07:06:23;8.90;99.90
77582;DHT22;66726;52.388;9.986;2023-02-21T07:08:55;9.00;99.90
77582;DHT22;66726;52.388;9.986;2023-02-21T07:11:23;9.00;99.90
77582;DHT22;66726;52.388;9.986;2023-02-21T07:13:53;9.00;99.90
77582;DHT22;66726;52.388;9.986;2023-02-21T07:16:22;9.00;99.90
77582;DHT22;66726;52.388;9.986;2023-02-21T07:18:50;9.00;99.90
77582;DHT22;66726;52.388;9.986;2023-02-21T07:21:19;9.00;99.90
77582;DHT22;66726;52.388;9.986;2023-02-21T07:23:48;8.90;99.90
77582;DHT22;66726;52.388;9.986;2023-02-21T07:26:16;8.90;99.90
77582;DHT22;66726;52.388;9.986;2023-02-21T07:28:46;8.90;99.90
77582;DHT22;66726;52.388;9.986;2023-02-21T07:31:16;9.00;99.90
77582;DHT22;66726;52.388;9.986;2023-02-21T07:33:46;9.00;99.90
77582;DHT22;66726;52.388;9.986;2023-02-21T07:36:14;9.00;99.90
77582;DHT22;66726;52.388;9.986;2023-02-21T07:38:42;9.00;99.90
77582;DHT22;66726;52.388;9.986;2023-02-21T07:41:13;9.00;99.90
77582;DHT22;66726;52.388;9.986;2023-02-21T07:43:42;9.00;99.90
77582;DHT22;66726;52.388;9.986;2023-02-21T07:46:11;9.00;99.90
77582;DHT22;66726;52.388;9.986;2023-02-21T07:48:42;9.00;99.90
77582;DHT22;66726;52.388;9.986;2023-02-21T07:51:11;9.00;99.90
77582;DHT22;66726;52.388;9.986;2023-02-21T07:53:40;9.00;99.90
77582;DHT22;66726;52.388;9.986;2023-02-21T07:56:08;9.00;99.90
77582;DHT22;66726;52.388;9.986;2023-02-21T07:58:36;9.00;99.90
77582;DHT22;66726;52.388;9.986;2023-02-21T08:01:05;9.00;99.90
77582;DHT22;66726;52.388;9.986;2023-02-21T08:03:34;9.00;99.90
77582;DHT22;66726;52.388;9.986;2023-02-21T08:06:04;9.00;99.90
77582;DHT22;66726;52.388;9.986;2023-02-21T08:08:35;9.00;99.90
77582;DHT22;66726;52.388;9.986;2023-02-21T08:11:03;9.00;99.90
77582;DHT22;66726;52.388;9.986;2023-02-21T08:13:31;9.10;99.90
77582;DHT22;66726;52.388;9.986;2023-02-21T08:15:59;9.00;99.90
77582;DHT22;66726;52.388;9.986;2023-02-21T08:18:28;9.10;99.90
77582;DHT22;66726;52.388;9.986;2023-02-21T08:20:56;9.00;99.90
77582;DHT22;66726;52.388;9.986;2023-02-21T08:23:25;9.00;99.90
77582;DHT22;66726;52.388;9.986;2023-02-21T08:25:53;9.00;99.90
77582;DHT22;66726;52.388;9.986;2023-02-21T08:28:21;9.10;99.90
77582;DHT22;66726;52.388;9.986;2023-02-21T08:30:49;9.10;99.90
77582;DHT22;66726;52.388;9.986;2023-02-21T08:33:19;9.10;99.90
77582;DHT22;66726;52.388;9.986;2023-02-21T08:35:47;9.10;99.90
77582;DHT22;66726;52.388;9.986;2023-02-21T08:38:17;9.10;99.90
77582;DHT22;66726;52.388;9.986;2023-02-21T08:40:47;9.10;99.90
77582;DHT22;66726;52.388;9.986;2023-02-21T08:43:17;9.20;99.90
77582;DHT22;66726;52.388;9.986;2023-02-21T08:45:45;9.10;99.90
77582;DHT22;66726;52.388;9.986;2023-02-21T08:48:13;9.10;99.90
77582;DHT22;66726;52.388;9.986;2023-02-21T08:50:41;9.10;99.90
77582;DHT22;66726;52.388;9.986;2023-02-21T08:53:10;9.20;99.90
77582;DHT22;66726;52.388;9.986;2023-02-21T08:55:41;9.10;99.90
77582;DHT22;66726;52.388;9.986;2023-02-21T08:58:11;9.20;99.90
77582;DHT22;66726;52.388;9.986;2023-02-21T09:00:39;9.20;99.90
77582;DHT22;66726;52.388;9.986;2023-02-21T09:03:08;9.20;99.90
77582;DHT22;66726;52.388;9.986;2023-02-21T09:05:36;9.30;99.90
77582;DHT22;66726;52.388;9.986;2023-02-21T09:08:04;9.30;99.90
77582;DHT22;66726;52.388;9.986;2023-02-21T09:10:35;9.30;99.90
77582;DHT22;66726;52.388;9.986;2023-02-21T09:13:06;9.30;99.90
77582;DHT22;66726;52.388;9.986;2023-02-21T09:15:35;9.30;99.90
77582;DHT22;66726;52.388;9.986;2023-02-21T09:18:03;9.40;99.90
77582;DHT22;66726;52.388;9.986;2023-02-21T09:20:32;9.40;99.90
77582;DHT22;66726;52.388;9.986;2023-02-21T09:23:00;9.40;99.90
77582;DHT22;66726;52.388;9.986;2023-02-21T09:25:28;9.40;99.90
77582;DHT22;66726;52.388;9.986;2023-02-21T09:27:56;9.40;99.90
77582;DHT22;66726;52.388;9.986;2023-02-21T09:30:26;9.40;99.90
77582;DHT22;66726;52.388;9.986;2023-02-21T09:32:56;9.40;99.90
77582;DHT22;66726;52.388;9.986;2023-02-21T09:35:33;9.40;99.90
77582;DHT22;66726;52.388;9.986;2023-02-21T09:38:02;9.40;99.90
77582;DHT22;66726;52.388;9.986;2023-02-21T09:40:36;9.40;99.90
77582;DHT22;66726;52.388;9.986;2023-02-21T09:43:12;9.40;99.90
77582;DHT22;66726;52.388;9.986;2023-02-21T09:45:45;9.40;99.90
77582;DHT22;66726;52.388;9.986;2023-02-21T09:48:19;9.40;99.90
77582;DHT22;66726;52.388;9.986;2023-02-21T09:50:53;9.40;99.90
77582;DHT22;66726;52.388;9.986;2023-02-21T09:53:25;9.50;99.90
77582;DHT22;66726;52.388;9.986;2023-02-21T09:55:58;9.40;99.90
77582;DHT22;66726;52.388;9.986;2023-02-21T09:58:30;9.50;99.90
77582;DHT22;66726;52.388;9.986;2023-02-21T10:01:03;9.50;99.90
77582;DHT22;66726;52.388;9.986;2023-02-21T10:03:46;9.50;99.90
77582;DHT22;66726;52.388;9.986;2023-02-21T10:06:29;9.60;99.90
77582;DHT22;66726;52.388;9.986;2023-02-21T10:09:07;9.60;99.90
77582;DHT22;66726;52.388;9.986;2023-02-21T10:11:56;9.60;99.90
77582;DHT22;66726;52.388;9.986;2023-02-21T10:14:42;9.60;99.90
77582;DHT22;66726;52.388;9.986;2023-02-21T10:17:28;9.60;99.90
77582;DHT22;66726;52.388;9.986;2023-02-21T10:20:07;9.60;99.90
77582;DHT22;66726;52.388;9.986;2023-02-21T10:22:43;9.70;99.90
77582;DHT22;66726;52.388;9.986;2023-02-21T10:25:21;9.80;99.90
77582;DHT22;66726;52.388;9.986;2023-02-21T10:27:52;9.80;99.90
77582;DHT22;66726;52.388;9.986;2023-02-21T10:30:26;9.80;99.90
77582;DHT22;66726;52.388;9.986;2023-02-21T10:33:02;9.90;99.90
77582;DHT22;66726;52.388;9.986;2023-02-21T10:35:34;9.90;99.90
77582;DHT22;66726;52.388;9.986;2023-02-21T10:38:06;10.00;99.90
77582;DHT22;66726;52.388;9.986;2023-02-21T10:40:40;10.00;99.90
77582;DHT22;66726;52.388;9.986;2023-02-21T10:43:14;10.00;99.90
77582;DHT22;66726;52.388;9.986;2023-02-21T10:45:49;9.90;99.90
77582;DHT22;66726;52.388;9.986;2023-02-21T10:48:26;9.90;99.90
77582;DHT22;66726;52.388;9.986;2023-02-21T10:51:07;10.00;99.90
77582;DHT22;66726;52.388;9.986;2023-02-21T10:53:37;9.90;99.90
77582;DHT22;66726;52.388;9.986;2023-02-21T10:56:22;10.00;99.90
77582;DHT22;66726;52.388;9.986;2023-02-21T10:58:55;10.00;99.90
77582;DHT22;66726;52.388;9.986;2023-02-21T11:01:35;10.00;99.90
77582;DHT22;66726;52.388;9.986;2023-02-21T11:04:24;9.90;99.90
77582;DHT22;66726;52.388;9.986;2023-02-21T11:06:58;9.90;99.90
77582;DHT22;66726;52.388;9.986;2023-02-21T11:09:34;9.90;99.90
77582;DHT22;66726;52.388;9.986;2023-02-21T11:12:16;9.90;99.90
77582;DHT22;66726;52.388;9.986;2023-02-21T11:15:14;10.00;99.90
77582;DHT22;66726;52.388;9.986;2023-02-21T11:17:44;10.00;99.90
77582;DHT22;66726;52.388;9.986;2023-02-21T11:20:18;10.00;99.90
77582;DHT22;66726;52.388;9.986;2023-02-21T11:22:50;10.00;99.90
77582;DHT22;66726;52.388;9.986;2023-02-21T11:25:23;10.00;99.90
77582;DHT22;66726;52.388;9.986;2023-02-21T11:27:59;10.20;99.90
77582;DHT22;66726;52.388;9.986;2023-02-21T11:30:31;10.20;99.90
77582;DHT22;66726;52.388;9.986;2023-02-21T11:33:03;10.20;99.90
77582;DHT22;66726;52.388;9.986;2023-02-21T11:35:34;10.20;99.90
77582;DHT22;66726;52.388;9.986;2023-02-21T11:38:15;10.20;99.90
77582;DHT22;66726;52.388;9.986;2023-02-21T11:40:59;10.20;99.90
77582;DHT22;66726;52.388;9.986;2023-02-21T11:43:28;10.30;99.90
77582;DHT22;66726;52.388;9.986;2023-02-21T11:46:04;10.30;99.90
77582;DHT22;66726;52.388;9.986;2023-02-21T11:48:46;10.30;99.90
77582;DHT22;66726;52.388;9.986;2023-02-21T11:51:29;10.30;99.90
77582;DHT22;66726;52.388;9.986;2023-02-21T11:54:04;10.30;99.90
77582;DHT22;66726;52.388;9.986;2023-02-21T11:56:48;10.30;99.90
77582;DHT22;66726;52.388;9.986;2023-02-21T11:59:33;10.30;99.90
77582;DHT22;66726;52.388;9.986;2023-02-21T12:02:36;10.50;99.90
77582;DHT22;66726;52.388;9.986;2023-02-21T12:05:28;10.50;99.90
77582;DHT22;66726;52.388;9.986;2023-02-21T12:08:18;10.50;99.90
77582;DHT22;66726;52.388;9.986;2023-02-21T12:11:01;10.40;99.90
77582;DHT22;66726;52.388;9.986;2023-02-21T12:13:55;10.40;99.90
77582;DHT22;66726;52.388;9.986;2023-02-21T12:16:40;10.40;99.90
77582;DHT22;66726;52.388;9.986;2023-02-21T12:19:36;10.40;99.90
77582;DHT22;66726;52.388;9.986;2023-02-21T12:22:39;10.40;99.90
77582;DHT22;66726;52.388;9.986;2023-02-21T12:25:22;10.50;99.90
77582;DHT22;66726;52.388;9.986;2023-02-21T12:28:05;10.50;99.90
77582;DHT22;66726;52.388;9.986;2023-02-21T12:31:03;10.50;99.90
77582;DHT22;66726;52.388;9.986;2023-02-21T12:33:43;10.60;99.90
77582;DHT22;66726;52.388;9.986;2023-02-21T12:40:03;10.60;99.90
77582;DHT22;66726;52.388;9.986;2023-02-21T12:42:52;10.60;99.90
77582;DHT22;66726;52.388;9.986;2023-02-21T12:45:42;10.60;99.90
77582;DHT22;66726;52.388;9.986;2023-02-21T12:48:26;10.60;99.90
77582;DHT22;66726;52.388;9.986;2023-02-21T12:51:02;10.50;99.90
77582;DHT22;66726;52.388;9.986;2023-02-21T12:53:38;10.50;99.90
77582;DHT22;66726;52.388;9.986;2023-02-21T12:56:12;10.60;99.90
77582;DHT22;66726;52.388;9.986;2023-02-21T12:58:48;10.60;99.90
77582;DHT22;66726;52.388;9.986;2023-02-21T13:01:27;10.60;99.90
77582;DHT22;66726;52.388;9.986;2023-02-21T13:04:07;10.70;99.80
77582;DHT22;66726;52.388;9.986;2023-02-21T13:06:46;10.70;99.90
77582;DHT22;66726;52.388;9.986;2023-02-21T13:09:29;10.80;99.20
77582;DHT22;66726;52.388;9.986;2023-02-21T13:12:05;11.10;99.30
77582;DHT22;66726;52.388;9.986;2023-02-21T13:14:40;11.30;98.70
77582;DHT22;66726;52.388;9.986;2023-02-21T13:17:15;11.40;98.00
77582;DHT22;66726;52.388;9.986;2023-02-21T13:19:46;11.40;97.40
77582;DHT22;66726;52.388;9.986;2023-02-21T13:26:11;11.30;97.00
77582;DHT22;66726;52.388;9.986;2023-02-21T13:28:51;11.30;97.50
77582;DHT22;66726;52.388;9.986;2023-02-21T13:31:22;11.50;97.40
77582;DHT22;66726;52.388;9.986;2023-02-21T13:33:56;11.40;96.80
77582;DHT22;66726;52.388;9.986;2023-02-21T13:36:29;11.40;97.00
77582;DHT22;66726;52.388;9.986;2023-02-21T13:39:02;11.40;96.40
77582;DHT22;66726;52.388;9.986;2023-02-21T13:41:40;11.30;97.00
77582;DHT22;66726;52.388;9.986;2023-02-21T13:44:15;11.30;97.70
77582;DHT22;66726;52.388;9.986;2023-02-21T13:47:11;11.20;97.90
77582;DHT22;66726;52.388;9.986;2023-02-21T13:49:47;11.10;98.10
77582;DHT22;66726;52.388;9.986;2023-02-21T13:52:34;11.00;98.40
77582;DHT22;66726;52.388;9.986;2023-02-21T13:55:22;11.00;98.50
77582;DHT22;66726;52.388;9.986;2023-02-21T13:58:31;10.90;98.70
77582;DHT22;66726;52.388;9.986;2023-02-21T14:01:18;10.90;98.60
77582;DHT22;66726;52.388;9.986;2023-02-21T14:08:01;11.00;98.70
77582;DHT22;66726;52.388;9.986;2023-02-21T14:10:39;10.90;99.20
77582;DHT22;66726;52.388;9.986;2023-02-21T14:13:20;10.90;98.70
77582;DHT22;66726;52.388;9.986;2023-02-21T14:15:57;10.90;98.90
77582;DHT22;66726;52.388;9.986;2023-02-21T14:18:28;10.90;98.90
77582;DHT22;66726;52.388;9.986;2023-02-21T14:21:08;10.80;98.90
77582;DHT22;66726;52.388;9.986;2023-02-21T14:23:48;10.70;99.00
77582;DHT22;66726;52.388;9.986;2023-02-21T14:26:41;10.80;99.20
77582;DHT22;66726;52.388;9.986;2023-02-21T14:29:27;10.80;99.10
77582;DHT22;66726;52.388;9.986;2023-02-21T14:35:13;10.80;99.30
77582;DHT22;66726;52.388;9.986;2023-02-21T14:37:53;10.80;99.30
77582;DHT22;66726;52.388;9.986;2023-02-21T14:40:32;10.80;99.10
77582;DHT22;66726;52.388;9.986;2023-02-21T14:43:27;10.80;99.20
77582;DHT22;66726;52.388;9.986;2023-02-21T14:46:19;10.80;98.80
77582;DHT22;66726;52.388;9.986;2023-02-21T14:52:32;10.80;98.90
77582;DHT22;66726;52.388;9.986;2023-02-21T14:58:55;10.70;99.20
77582;DHT22;66726;52.388;9.986;2023-02-21T15:01:44;10.70;99.30
77582;DHT22;66726;52.388;9.986;2023-02-21T15:04:32;10.70;99.40
77582;DHT22;66726;52.388;9.986;2023-02-21T15:07:18;10.70;99.40
77582;DHT22;66726;52.388;9.986;2023-02-21T15:10:11;10.60;99.60
77582;DHT22;66726;52.388;9.986;2023-02-21T15:12:45;10.60;99.50
77582;DHT22;66726;52.388;9.986;2023-02-21T15:15:21;10.60;99.40
77582;DHT22;66726;52.388;9.986;2023-02-21T15:18:02;10.60;99.60
77582;DHT22;66726;52.388;9.986;2023-02-21T15:20:34;10.60;99.60
77582;DHT22;66726;52.388;9.986;2023-02-21T15:23:12;10.60;99.60
77582;DHT22;66726;52.388;9.986;2023-02-21T15:25:42;10.60;99.60
77582;DHT22;66726;52.388;9.986;2023-02-21T15:28:23;10.60;99.80
77582;DHT22;66726;52.388;9.986;2023-02-21T15:31:01;10.60;99.70
77582;DHT22;66726;52.388;9.986;2023-02-21T15:33:32;10.50;99.80
77582;DHT22;66726;52.388;9.986;2023-02-21T15:36:04;10.50;99.90
77582;DHT22;66726;52.388;9.986;2023-02-21T15:38:37;10.50;99.90
77582;DHT22;66726;52.388;9.986;2023-02-21T15:41:14;10.50;99.80
77582;DHT22;66726;52.388;9.986;2023-02-21T15:43:57;10.40;99.90
77582;DHT22;66726;52.388;9.986;2023-02-21T15:46:32;10.40;99.90
77582;DHT22;66726;52.388;9.986;2023-02-21T15:49:15;10.40;99.90
77582;DHT22;66726;52.388;9.986;2023-02-21T15:51:48;10.40;99.90
77582;DHT22;66726;52.388;9.986;2023-02-21T15:54:26;10.40;99.90
77582;DHT22;66726;52.388;9.986;2023-02-21T15:57:02;10.40;99.90
77582;DHT22;66726;52.388;9.986;2023-02-21T15:59:37;10.30;99.90
77582;DHT22;66726;52.388;9.986;2023-02-21T16:02:11;10.30;99.90
77582;DHT22;66726;52.388;9.986;2023-02-21T16:04:41;10.30;99.90
77582;DHT22;66726;52.388;9.986;2023-02-21T16:07:17;10.30;99.90
77582;DHT22;66726;52.388;9.986;2023-02-21T16:09:59;10.30;99.90
77582;DHT22;66726;52.388;9.986;2023-02-21T16:12:32;10.30;99.90
77582;DHT22;66726;52.388;9.986;2023-02-21T16:15:06;10.20;99.90
77582;DHT22;66726;52.388;9.986;2023-02-21T16:17:51;10.20;99.90
77582;DHT22;66726;52.388;9.986;2023-02-21T16:20:24;10.20;99.90
77582;DHT22;66726;52.388;9.986;2023-02-21T16:23:19;10.20;99.90
77582;DHT22;66726;52.388;9.986;2023-02-21T16:25:56;10.20;99.90
77582;DHT22;66726;52.388;9.986;2023-02-21T16:28:26;10.10;99.90
77582;DHT22;66726;52.388;9.986;2023-02-21T16:30:57;10.10;99.90
77582;DHT22;66726;52.388;9.986;2023-02-21T16:33:27;10.10;99.90
77582;DHT22;66726;52.388;9.986;2023-02-21T16:35:57;10.10;99.90
77582;DHT22;66726;52.388;9.986;2023-02-21T16:38:29;10.10;99.90
77582;DHT22;66726;52.388;9.986;2023-02-21T16:40:57;10.10;99.90
77582;DHT22;66726;52.388;9.986;2023-02-21T16:43:27;10.10;99.90
77582;DHT22;66726;52.388;9.986;2023-02-21T16:45:57;10.10;99.90
77582;DHT22;66726;52.388;9.986;2023-02-21T16:48:28;10.00;99.90
77582;DHT22;66726;52.388;9.986;2023-02-21T16:51:00;10.00;99.90
77582;DHT22;66726;52.388;9.986;2023-02-21T16:53:29;10.00;99.90
77582;DHT22;66726;52.388;9.986;2023-02-21T16:55:59;10.00;99.90
77582;DHT22;66726;52.388;9.986;2023-02-21T16:58:31;10.00;99.90
77582;DHT22;66726;52.388;9.986;2023-02-21T17:01:04;10.00;99.90
77582;DHT22;66726;52.388;9.986;2023-02-21T17:03:34;10.00;99.90
77582;DHT22;66726;52.388;9.986;2023-02-21T17:06:03;9.90;99.90